Time;durP1;ratioP1;P1;durP2;ratioP2;P2;SDS_P1;SDS_P2;PMS_P1;PMS_P2;Temp;Humidity;BMP_temperature;BMP_pressure;BME280_temperature;BME280_humidity;BME280_pressure;Samples;Min_cycle;Max_cycle;Signal;HPM_P1;HPM_P2
2022/11/22 04:26:55;;;;;;;8.82;3.33;;;11.90;67.60;;;;;;4773025;30;20087;-77
2022/11/22 04:29:21;;;;;;;7.95;2.92;;;12.30;67.10;;;;;;4773072;30;20061;-76
2022/11/22 04:34:33;;;;;;;7.45;2.90;;;13.00;66.20;;;;;;4790050;30;20060;-77
2022/11/22 04:36:59;;;;;;;7.75;3.75;;;13.30;65.90;;;;;;4775647;30;20123;-76
2022/11/22 04:39:25;;;;;;;6.18;3.40;;;13.40;65.90;;;;;;4789880;30;20061;-74
2022/11/22 04:44:40;;;;;;;6.80;2.80;;;13.70;65.60;;;;;;4789385;30;20502;-79
2022/11/22 04:53:27;;;;;;;15.13;2.88;;;13.90;65.60;;;;;;4717112;30;20128;-78
2022/11/22 04:55:53;;;;;;;10.40;3.35;;;13.90;66.30;;;;;;4768217;30;20386;-78
2022/11/22 04:58:19;;;;;;;8.73;3.00;;;13.90;65.90;;;;;;4790282;30;20058;-76
2022/11/22 05:00:45;;;;;;;19.90;2.92;;;13.90;66.30;;;;;;4774458;30;20063;-78
2022/11/22 05:03:11;;;;;;;10.73;3.47;;;14.00;66.40;;;;;;4774371;30;20406;-78
2022/11/22 05:05:39;;;;;;;10.38;2.80;;;14.00;66.40;;;;;;4759695;30;20124;-76
2022/11/22 05:08:06;;;;;;;9.20;2.67;;;14.00;66.50;;;;;;4789804;30;20138;-80
2022/11/22 05:13:17;;;;;;;6.78;2.10;;;14.00;66.70;;;;;;4789101;30;20055;-78
2022/11/22 05:15:52;;;;;;;11.35;3.00;;;14.10;66.80;;;;;;4789178;30;20054;-78
2022/11/22 05:18:26;;;;;;;10.60;3.05;;;14.20;67.00;;;;;;4789889;30;20062;-77
2022/11/22 05:20:51;;;;;;;11.52;2.78;;;14.30;66.80;;;;;;4788936;30;20155;-76
2022/11/22 05:26:03;;;;;;;7.13;2.80;;;14.50;66.20;;;;;;4788784;30;20051;-78
2022/11/22 05:28:30;;;;;;;9.95;3.03;;;14.60;66.10;;;;;;4789927;30;20074;-80
2022/11/22 05:30:56;;;;;;;12.43;3.33;;;14.70;66.00;;;;;;4773925;30;20059;-77
2022/11/22 05:33:30;;;;;;;8.63;2.63;;;14.70;65.80;;;;;;4789617;30;20184;-79
2022/11/22 05:36:07;;;;;;;9.50;2.95;;;14.80;65.80;;;;;;4789145;30;20058;-76
2022/11/22 05:38:57;;;;;;;14.88;2.97;;;14.30;66.30;;;;;;4774162;30;20040;-80
2022/11/22 05:41:34;;;;;;;12.10;3.00;;;14.40;66.40;;;;;;4789498;30;20047;-81
2022/11/22 05:44:06;;;;;;;22.20;3.80;;;14.30;66.70;;;;;;4759427;30;20111;-78
2022/11/22 05:46:31;;;;;;;12.13;3.30;;;14.30;66.90;;;;;;4773559;30;20070;-75
2022/11/22 05:48:58;;;;;;;9.77;2.83;;;14.30;66.80;;;;;;4789706;30;20043;-78
2022/11/22 05:51:29;;;;;;;15.40;3.50;;;14.30;66.90;;;;;;4790286;30;20340;-74
2022/11/22 05:54:09;;;;;;;12.20;3.60;;;14.30;67.10;;;;;;4759725;30;20062;-76
2022/11/22 05:56:55;;;;;;;14.45;3.38;;;14.30;67.30;;;;;;4792920;30;20458;-78
2022/11/22 05:59:26;;;;;;;12.10;3.10;;;14.30;67.50;;;;;;4776350;30;20145;-76
2022/11/22 06:01:52;;;;;;;18.20;3.97;;;14.20;67.80;;;;;;4782396;30;20062;-77
2022/11/22 06:04:18;;;;;;;15.10;3.25;;;14.20;68.20;;;;;;4793365;30;20039;-75
2022/11/22 06:06:48;;;;;;;20.67;3.75;;;14.10;68.30;;;;;;4777525;30;20063;-75
2022/11/22 06:09:14;;;;;;;11.63;2.95;;;14.10;68.70;;;;;;4793322;30;20058;-81
2022/11/22 06:11:39;;;;;;;12.48;3.42;;;14.10;68.90;;;;;;4793279;30;20039;-82
2022/11/22 06:14:08;;;;;;;15.98;3.28;;;14.10;68.70;;;;;;4793181;30;20062;-80
2022/11/22 06:16:33;;;;;;;11.38;3.53;;;14.10;68.60;;;;;;4792095;30;20047;-82
2022/11/22 06:18:59;;;;;;;12.93;4.30;;;14.10;68.00;;;;;;4777237;30;20378;-84
2022/11/22 06:21:25;;;;;;;10.90;3.85;;;14.10;67.50;;;;;;4768495;30;20159;-80
2022/11/22 06:23:52;;;;;;;12.75;4.80;;;14.10;67.10;;;;;;4774567;30;20120;-80
2022/11/22 06:26:19;;;;;;;10.70;5.30;;;14.10;66.50;;;;;;4775217;30;20051;-77
2022/11/22 06:28:47;;;;;;;9.52;4.93;;;14.00;65.00;;;;;;4774155;30;20152;-78
2022/11/22 06:31:33;;;;;;;16.88;5.18;;;13.90;64.60;;;;;;4770161;30;20467;-74
2022/11/22 06:33:59;;;;;;;12.73;4.78;;;13.90;64.30;;;;;;4779880;30;20479;-74
2022/11/22 06:36:36;;;;;;;11.57;5.10;;;13.80;64.30;;;;;;4758128;30;20054;-81
2022/11/22 06:39:08;;;;;;;15.02;5.82;;;13.80;64.00;;;;;;4761141;30;20055;-78
2022/11/22 06:41:36;;;;;;;12.18;4.38;;;13.70;64.00;;;;;;4780673;30;20046;-77
2022/11/22 06:44:07;;;;;;;11.55;4.15;;;13.70;63.90;;;;;;4782795;30;20059;-78
2022/11/22 06:46:34;;;;;;;15.13;4.70;;;13.80;63.90;;;;;;4784682;30;20058;-78
2022/11/22 06:49:02;;;;;;;12.43;4.22;;;13.90;64.00;;;;;;4782660;30;20052;-80
2022/11/22 06:51:33;;;;;;;12.38;3.85;;;14.00;64.20;;;;;;4781514;30;20193;-79
2022/11/22 06:53:59;;;;;;;11.57;4.05;;;14.10;64.20;;;;;;4782655;30;20062;-80
2022/11/22 06:56:35;;;;;;;15.10;3.85;;;14.20;64.40;;;;;;4775205;30;20043;-80
2022/11/22 06:59:17;;;;;;;28.85;4.47;;;14.10;64.70;;;;;;4776818;30;20060;-79
2022/11/22 07:01:44;;;;;;;16.52;3.28;;;14.20;64.70;;;;;;4767217;30;20043;-78
2022/11/22 07:04:14;;;;;;;12.10;2.67;;;14.20;64.70;;;;;;4782972;29;20352;-80
2022/11/22 07:06:43;;;;;;;22.60;3.57;;;14.20;65.40;;;;;;4764398;30;20112;-75
2022/11/22 07:09:10;;;;;;;15.95;3.13;;;14.20;64.80;;;;;;4784400;30;20132;-80
2022/11/22 07:11:38;;;;;;;12.65;2.83;;;14.30;64.90;;;;;;4756192;30;20043;-80
2022/11/22 07:14:04;;;;;;;11.80;2.53;;;14.40;64.90;;;;;;4762982;30;20050;-80
2022/11/22 07:16:30;;;;;;;11.10;2.38;;;14.30;65.00;;;;;;4787659;30;20496;-79
2022/11/22 07:18:59;;;;;;;9.40;2.90;;;14.30;65.00;;;;;;4781989;30;20126;-79
2022/11/22 07:21:25;;;;;;;16.33;2.10;;;14.30;65.30;;;;;;4786314;30;20061;-78
2022/11/22 07:23:55;;;;;;;9.63;2.40;;;14.30;65.40;;;;;;4775669;30;20126;-82
2022/11/22 07:26:23;;;;;;;12.93;2.55;;;14.40;66.10;;;;;;4780951;30;20035;-80
2022/11/22 07:28:55;;;;;;;9.27;2.10;;;14.50;65.30;;;;;;4772153;30;20376;-79
2022/11/22 07:35:08;;;;;;;10.82;2.38;;;14.80;64.70;;;;;;4768209;30;20027;-77
2022/11/22 07:37:36;;;;;;;10.70;2.13;;;15.00;64.50;;;;;;4755821;30;20123;-77
2022/11/22 07:44:07;;;;;;;8.57;2.65;;;15.00;64.80;;;;;;4754520;30;20088;-78
2022/11/22 07:46:32;;;;;;;9.35;1.77;;;15.00;64.70;;;;;;4772761;30;20115;-80
2022/11/22 07:53:08;;;;;;;7.68;2.05;;;14.90;64.50;;;;;;4781954;30;20479;-79
2022/11/22 07:56:09;;;;;;;9.23;2.70;;;14.90;65.60;;;;;;4751473;30;20055;-80
2022/11/22 08:06:27;;;;;;;7.05;1.73;;;14.70;65.70;;;;;;4684286;30;20072;-78
2022/11/22 08:08:53;;;;;;;7.05;1.55;;;14.50;65.80;;;;;;4681091;30;20061;-77
2022/11/22 08:11:18;;;;;;;11.27;2.15;;;14.50;65.70;;;;;;4744437;30;20138;-77
2022/11/22 08:13:46;;;;;;;8.57;2.05;;;14.50;66.10;;;;;;4773208;30;20138;-77
2022/11/22 08:16:18;;;;;;;10.93;1.95;;;14.50;66.50;;;;;;4772251;30;20058;-79
2022/11/22 08:18:50;;;;;;;7.18;1.55;;;14.40;66.50;;;;;;4756729;30;20130;-80
2022/11/22 08:21:20;;;;;;;8.27;1.73;;;14.40;66.80;;;;;;4780492;30;20100;-78
2022/11/22 08:23:49;;;;;;;11.52;2.60;;;14.40;66.80;;;;;;4774335;30;20451;-79
2022/11/22 08:26:16;;;;;;;13.63;2.20;;;14.40;67.00;;;;;;4759871;30;20055;-76
2022/11/22 08:28:43;;;;;;;12.27;2.60;;;14.30;66.70;;;;;;4775082;30;20070;-77
2022/11/22 08:31:14;;;;;;;14.25;2.33;;;14.20;66.80;;;;;;4774824;30;20047;-75
2022/11/22 08:33:43;;;;;;;15.05;2.13;;;14.20;67.30;;;;;;4789443;30;20051;-78
2022/11/22 08:36:09;;;;;;;14.75;2.35;;;14.20;67.10;;;;;;4790440;30;20066;-77
2022/11/22 08:38:35;;;;;;;10.38;2.80;;;14.20;66.90;;;;;;4789610;30;20050;-76
2022/11/22 08:41:02;;;;;;;10.25;2.33;;;14.20;66.40;;;;;;4790918;30;20077;-75
2022/11/22 08:43:28;;;;;;;7.80;1.70;;;14.20;66.00;;;;;;4790564;30;20360;-75
2022/11/22 08:45:56;;;;;;;10.30;2.72;;;14.20;65.70;;;;;;4774762;30;20076;-75
2022/11/22 08:48:22;;;;;;;10.18;2.28;;;14.10;65.40;;;;;;4774841;30;20066;-75
2022/11/22 08:51:08;;;;;;;8.18;1.92;;;14.10;65.20;;;;;;4790677;30;20089;-74
2022/11/22 08:53:39;;;;;;;8.93;2.53;;;14.00;64.70;;;;;;4775067;30;20138;-75
2022/11/22 08:56:08;;;;;;;7.60;1.95;;;14.00;65.10;;;;;;4790043;30;20063;-75
2022/11/22 08:58:34;;;;;;;10.38;2.70;;;14.00;65.10;;;;;;4789960;30;20051;-74
2022/11/22 09:01:11;;;;;;;7.82;2.13;;;13.90;65.10;;;;;;4774277;30;20093;-76
2022/11/22 09:03:38;;;;;;;6.38;1.90;;;13.90;65.20;;;;;;4790792;30;20535;-75
2022/11/22 09:06:07;;;;;;;6.43;2.00;;;13.90;65.30;;;;;;4790420;30;20091;-75
2022/11/22 09:08:34;;;;;;;5.35;1.75;;;13.80;65.30;;;;;;4790536;30;20055;-75
2022/11/22 09:11:01;;;;;;;8.57;2.17;;;13.80;65.30;;;;;;4774645;30;20069;-76
2022/11/22 09:13:28;;;;;;;11.10;2.10;;;13.80;65.30;;;;;;4790467;30;20410;-75
2022/11/22 09:15:53;;;;;;;5.40;2.15;;;13.70;65.30;;;;;;4790757;30;20124;-75
2022/11/22 09:18:19;;;;;;;11.65;2.03;;;13.70;65.40;;;;;;4790512;30;20048;-76
2022/11/22 09:20:45;;;;;;;5.95;2.03;;;13.70;65.50;;;;;;4789904;30;20073;-76
2022/11/22 09:23:10;;;;;;;4.00;1.85;;;13.70;65.50;;;;;;4790460;30;20043;-75
2022/11/22 09:25:36;;;;;;;5.93;1.60;;;13.70;65.60;;;;;;4790253;30;20135;-74
2022/11/22 09:28:02;;;;;;;7.68;1.92;;;13.70;65.70;;;;;;4789628;30;20051;-75
2022/11/22 09:30:28;;;;;;;11.48;2.53;;;13.60;65.70;;;;;;4789789;30;20054;-75
2022/11/22 09:32:54;;;;;;;6.10;2.20;;;13.60;65.70;;;;;;4789817;30;20455;-76
2022/11/22 09:35:20;;;;;;;4.55;1.52;;;13.60;65.60;;;;;;4790194;30;20051;-76
2022/11/22 09:38:29;;;;;;;9.57;2.05;;;13.60;65.70;;;;;;4789225;30;20379;-77
2022/11/22 09:41:32;;;;;;;9.48;1.85;;;13.60;65.70;;;;;;4789471;30;20134;-78
2022/11/22 09:44:37;;;;;;;11.07;2.60;;;13.60;65.70;;;;;;4789084;30;20119;-77
2022/11/22 09:47:05;;;;;;;11.05;2.13;;;13.60;65.70;;;;;;4752660;30;20425;-77
2022/11/22 09:49:53;;;;;;;9.07;2.45;;;13.80;65.60;;;;;;4788643;30;20055;-77
2022/11/22 09:52:46;;;;;;;13.82;1.77;;;14.10;65.40;;;;;;4789586;30;20039;-77
2022/11/22 09:55:58;;;;;;;17.98;3.03;;;14.40;65.00;;;;;;4789397;30;20124;-77
2022/11/22 09:58:50;;;;;;;7.63;1.80;;;14.60;64.50;;;;;;4787934;30;20051;-78
2022/11/22 10:01:27;;;;;;;12.85;2.10;;;14.80;64.70;;;;;;4789370;29;20051;-76
2022/11/22 10:03:56;;;;;;;10.55;1.88;;;14.90;64.80;;;;;;4785373;30;20130;-77
2022/11/22 10:06:45;;;;;;;;;;;14.90;64.80;;;;;;4774589;30;20052;-77
2022/11/22 10:09:40;;;;;;;8.45;2.83;;;15.00;64.80;;;;;;4759077;30;19964;-79
2022/11/22 10:12:57;;;;;;;12.60;2.85;;;15.00;64.80;;;;;;4742223;30;20095;-77
2022/11/22 10:16:07;;;;;;;10.40;1.73;;;15.00;64.90;;;;;;4670389;30;20058;-77
2022/11/22 10:19:48;;;;;;;7.03;1.52;;;15.00;65.10;;;;;;4729872;30;20095;-77
2022/11/22 10:23:06;;;;;;;5.80;1.30;;;15.00;65.20;;;;;;4720110;30;20048;-77
2022/11/22 10:26:53;;;;;;;;;;;;;;;;;;;;;
2022/11/22 10:29:54;;;;;;;8.77;1.75;;;15.00;65.10;;;;;;4753518;30;20105;-77
2022/11/22 10:32:30;;;;;;;11.30;1.50;;;15.10;65.90;;;;;;4753695;30;20079;-77
2022/11/22 10:35:30;;;;;;;10.20;1.63;;;15.10;65.50;;;;;;4753112;30;20368;-76
2022/11/22 10:38:27;;;;;;;;;;;;;;;;;;;;;
2022/11/22 10:41:00;;;;;;;10.80;1.90;;;15.20;66.00;;;;;;4754816;30;20055;-71
2022/11/22 10:43:38;;;;;;;7.85;1.65;;;15.30;65.60;;;;;;4759212;30;20048;-73
2022/11/22 10:46:24;;;;;;;9.60;2.47;;;15.30;65.20;;;;;;4773886;30;20482;-75
2022/11/22 10:49:02;;;;;;;17.17;2.45;;;15.30;64.20;;;;;;4758512;30;20376;-76
2022/11/22 10:58:46;;;;;;;;;;;;;;;;;;;;;
2022/11/22 11:05:39;;;;;;;;;;;;;;;;;;;;;
2022/11/22 11:09:07;;;;;;;12.68;1.45;;;15.00;63.90;;;;;;4722639;30;20063;-77
2022/11/22 11:11:36;;;;;;;9.25;1.55;;;14.90;64.30;;;;;;4767027;30;20469;-74
2022/11/22 11:14:11;;;;;;;10.82;1.55;;;14.90;64.70;;;;;;4766536;30;20044;-74
2022/11/22 11:16:40;;;;;;;9.85;1.33;;;14.80;64.70;;;;;;4780076;30;20054;-78
2022/11/22 11:19:21;;;;;;;7.40;2.10;;;14.80;65.30;;;;;;4765201;30;20056;-76
2022/11/22 11:22:11;;;;;;;9.00;1.45;;;14.70;64.70;;;;;;4760819;30;20059;-74
2022/11/22 11:24:40;;;;;;;15.73;1.85;;;14.70;64.80;;;;;;4792073;30;20058;-75
2022/11/22 11:27:08;;;;;;;4.00;1.05;;;14.60;64.90;;;;;;4790647;30;20522;-76
2022/11/22 11:33:37;;;;;;;3.40;0.98;;;14.50;65.00;;;;;;4757746;29;20059;-74
2022/11/22 11:36:10;;;;;;;8.05;1.52;;;14.50;65.40;;;;;;4787884;30;20055;-76
2022/11/22 11:38:56;;;;;;;6.07;1.03;;;14.40;65.30;;;;;;4790650;30;20189;-76
2022/11/22 11:41:46;;;;;;;5.05;1.58;;;14.40;65.30;;;;;;4790883;30;20464;-76
2022/11/22 11:44:33;;;;;;;8.75;1.73;;;14.40;65.40;;;;;;4776557;30;20499;-75
2022/11/22 11:47:24;;;;;;;6.70;1.58;;;14.30;65.80;;;;;;4790915;30;20050;-76
2022/11/22 11:50:29;;;;;;;7.05;1.08;;;14.30;65.90;;;;;;4748883;30;20138;-76
2022/11/22 11:53:26;;;;;;;5.53;1.33;;;14.30;65.90;;;;;;4758605;30;20043;-76
2022/11/22 11:56:40;;;;;;;9.48;1.33;;;14.20;66.40;;;;;;4791537;29;20507;-77
2022/11/22 11:59:48;;;;;;;9.60;1.60;;;14.30;66.80;;;;;;4764495;30;20050;-77
2022/11/22 12:02:29;;;;;;;6.88;1.33;;;14.20;66.20;;;;;;4783230;29;20409;-76
2022/11/22 12:05:24;;;;;;;4.40;1.10;;;14.00;66.30;;;;;;4790178;30;20047;-78
2022/11/22 12:07:56;;;;;;;10.65;1.90;;;13.80;65.10;;;;;;4773497;30;20058;-77
2022/11/22 12:10:30;;;;;;;10.63;2.03;;;13.50;65.30;;;;;;4761407;30;20031;-77
2022/11/22 12:13:11;;;;;;;5.53;1.25;;;13.40;66.90;;;;;;4790393;30;20455;-78
2022/11/22 12:16:14;;;;;;;13.15;2.00;;;13.30;67.30;;;;;;4774521;30;20122;-78
2022/11/22 12:18:56;;;;;;;15.52;2.53;;;13.20;67.40;;;;;;4788364;30;20054;-75
2022/11/22 12:21:51;;;;;;;17.80;3.03;;;13.10;68.30;;;;;;4767961;30;20059;-77
2022/11/22 12:24:41;;;;;;;12.05;1.75;;;13.10;68.70;;;;;;4771444;30;20114;-75
2022/11/22 12:27:11;;;;;;;13.60;1.23;;;13.00;69.30;;;;;;4769902;30;20046;-80
2022/11/22 12:29:40;;;;;;;7.20;1.95;;;12.90;69.30;;;;;;4757292;30;20466;-77
2022/11/22 12:32:34;;;;;;;7.45;1.00;;;12.90;69.60;;;;;;4772553;30;20052;-74
2022/11/22 12:35:06;;;;;;;7.35;0.93;;;12.90;69.70;;;;;;4773055;30;20356;-76
2022/11/22 12:37:51;;;;;;;5.75;1.60;;;12.90;69.50;;;;;;4772226;30;20048;-75
2022/11/22 12:40:30;;;;;;;6.32;1.42;;;13.10;68.70;;;;;;4771880;30;20051;-72
2022/11/22 12:43:05;;;;;;;15.00;1.77;;;13.20;66.80;;;;;;4771308;30;20060;-75
2022/11/22 12:46:12;;;;;;;4.90;1.45;;;13.20;66.60;;;;;;4773069;30;20124;-77
2022/11/22 12:48:47;;;;;;;9.70;1.67;;;13.30;66.00;;;;;;4771840;30;20467;-77
2022/11/22 12:51:22;;;;;;;6.25;1.45;;;13.40;66.00;;;;;;4757145;30;20409;-79
2022/11/22 12:54:05;;;;;;;9.55;1.30;;;13.40;65.90;;;;;;4757120;30;20542;-76
2022/11/22 12:57:09;;;;;;;13.05;1.58;;;13.40;66.00;;;;;;4756798;30;20473;-77
2022/11/22 12:59:43;;;;;;;21.27;1.75;;;13.50;66.10;;;;;;4736757;30;20134;-76
2022/11/22 13:02:31;;;;;;;11.98;1.52;;;13.50;66.10;;;;;;4771131;30;20048;-76
2022/11/22 13:20:56;;;;;;;6.20;1.13;;;14.60;65.20;;;;;;4627156;30;20066;-78
2022/11/22 13:24:03;;;;;;;8.13;0.90;;;14.70;64.90;;;;;;4648623;30;20560;-78
2022/11/22 13:26:37;;;;;;;4.97;0.93;;;14.70;64.90;;;;;;4771051;30;20044;-74
2022/11/22 13:29:17;;;;;;;3.75;1.00;;;14.80;64.90;;;;;;4772166;30;20040;-78
2022/11/22 13:32:06;;;;;;;8.13;1.13;;;14.80;64.80;;;;;;4756191;30;20052;-76
2022/11/22 13:34:35;;;;;;;9.50;1.33;;;14.90;64.60;;;;;;4771911;30;20071;-77
2022/11/22 13:37:10;;;;;;;20.65;1.60;;;14.90;64.60;;;;;;4772175;30;20060;-78
2022/11/22 13:39:49;;;;;;;13.32;1.75;;;14.90;64.80;;;;;;4771007;30;20066;-78
2022/11/22 13:42:24;;;;;;;14.23;2.33;;;15.00;65.20;;;;;;4772308;30;20063;-77
2022/11/22 13:44:55;;;;;;;18.33;2.75;;;15.00;65.60;;;;;;4771953;30;20060;-77
2022/11/22 13:47:38;;;;;;;15.38;2.10;;;15.10;65.60;;;;;;4756337;30;20063;-77
2022/11/22 13:50:43;;;;;;;17.40;2.40;;;15.20;65.70;;;;;;4773906;30;20136;-80
2022/11/22 13:53:18;;;;;;;25.25;2.38;;;15.40;65.70;;;;;;4785426;30;20043;-79
2022/11/22 13:55:48;;;;;;;16.98;2.70;;;15.40;65.50;;;;;;4773551;30;20058;-80
2022/11/22 13:58:39;;;;;;;17.58;3.08;;;15.60;65.60;;;;;;4759014;30;20467;-77
2022/11/22 14:01:30;;;;;;;23.73;3.28;;;15.60;65.80;;;;;;4788904;30;20047;-77
2022/11/22 14:04:15;;;;;;;11.20;1.40;;;15.60;65.60;;;;;;4770914;30;20051;-79
2022/11/22 14:06:53;;;;;;;19.15;2.20;;;15.70;65.60;;;;;;4788575;30;20107;-79
2022/11/22 14:09:46;;;;;;;10.20;1.60;;;15.70;65.50;;;;;;4788876;30;20043;-81
2022/11/22 14:12:15;;;;;;;10.57;1.20;;;15.80;65.20;;;;;;4773310;30;20471;-76
2022/11/22 14:14:40;;;;;;;11.38;1.73;;;15.80;65.30;;;;;;4789822;29;20047;-80
2022/11/22 14:17:38;;;;;;;17.42;3.45;;;15.80;65.30;;;;;;4792192;30;20191;-78
2022/11/22 14:20:25;;;;;;;11.88;1.80;;;15.70;65.60;;;;;;4792219;30;20051;-79
2022/11/22 14:23:25;;;;;;;10.15;1.67;;;15.80;65.80;;;;;;4776347;30;20440;-78
2022/11/22 14:26:27;;;;;;;18.55;2.03;;;15.80;66.10;;;;;;4791934;30;20055;-77
2022/11/22 14:28:56;;;;;;;11.85;1.40;;;15.80;66.20;;;;;;4761709;30;20054;-79
2022/11/22 14:31:32;;;;;;;13.25;1.50;;;15.70;66.30;;;;;;4792746;30;20139;-77
2022/11/22 14:34:19;;;;;;;13.30;2.17;;;15.70;66.40;;;;;;4772598;30;20062;-78
2022/11/22 14:37:14;;;;;;;16.30;1.20;;;15.70;66.60;;;;;;4785212;30;20062;-74
2022/11/22 14:39:54;;;;;;;7.38;1.27;;;15.70;65.30;;;;;;4792085;30;20051;-78
2022/11/22 14:51:26;;;;;;;8.15;1.50;;;15.60;61.20;;;;;;4718440;30;20516;-81
2022/11/22 14:55:06;;;;;;;;;;;;;;;;;;;;;
2022/11/22 15:20:38;;;;;;;10.60;1.10;;;15.20;64.30;;;;;;4753121;29;20142;-80
2022/11/22 15:23:52;;;;;;;4.97;1.23;;;15.20;64.90;;;;;;4755267;30;20064;-81
2022/11/22 15:26:30;;;;;;;11.27;1.80;;;15.10;65.20;;;;;;4734738;30;20052;-80
2022/11/22 15:28:58;;;;;;;13.13;2.63;;;15.00;63.70;;;;;;4756288;30;20135;-75
2022/11/22 15:31:34;;;;;;;7.25;2.17;;;14.90;64.90;;;;;;4756648;30;20067;-77
2022/11/22 15:34:00;;;;;;;8.02;1.30;;;14.90;62.80;;;;;;4769195;30;20078;-77
2022/11/22 15:36:53;;;;;;;9.65;2.10;;;14.80;59.20;;;;;;4755988;30;20056;-73
2022/11/22 15:39:31;;;;;;;15.25;3.67;;;14.60;57.70;;;;;;4741390;30;20064;-79
2022/11/22 15:41:58;;;;;;;14.68;2.60;;;14.30;58.50;;;;;;4756235;30;20075;-78
2022/11/22 15:44:29;;;;;;;18.02;2.83;;;14.00;60.20;;;;;;4740331;30;20051;-80
2022/11/22 15:46:55;;;;;;;31.95;3.70;;;14.10;60.80;;;;;;4739635;30;20044;-80
2022/11/22 15:49:24;;;;;;;16.45;2.40;;;14.10;60.90;;;;;;4754878;30;20121;-79
2022/11/22 15:51:56;;;;;;;23.90;3.33;;;14.40;61.50;;;;;;4754325;30;20117;-74
2022/11/22 15:54:37;;;;;;;18.55;2.85;;;14.60;61.80;;;;;;4755259;30;20114;-78
2022/11/22 15:57:36;;;;;;;22.33;3.67;;;14.80;62.00;;;;;;4722878;30;20056;-76
2022/11/22 16:00:26;;;;;;;27.40;3.80;;;15.00;62.50;;;;;;4744252;30;20524;-76
2022/11/22 16:02:57;;;;;;;22.75;4.53;;;15.10;62.90;;;;;;4738958;30;20044;-76
2022/11/22 16:05:31;;;;;;;22.77;3.42;;;15.20;63.40;;;;;;4769494;30;20064;-76
2022/11/22 16:07:59;;;;;;;27.88;3.40;;;15.30;64.30;;;;;;4755701;30;20056;-79
2022/11/22 16:10:30;;;;;;;18.33;3.33;;;15.30;64.70;;;;;;4769284;30;20472;-77
2022/11/22 16:13:23;;;;;;;17.83;2.90;;;15.30;65.40;;;;;;4755599;30;20056;-79
2022/11/22 16:16:04;;;;;;;17.80;2.95;;;15.40;66.80;;;;;;4755343;30;20465;-76
2022/11/22 16:18:29;;;;;;;22.02;3.40;;;15.40;67.20;;;;;;4755301;30;20109;-79
2022/11/22 16:21:06;;;;;;;21.85;2.70;;;15.40;67.20;;;;;;4755123;30;20084;-79
2022/11/22 16:23:36;;;;;;;17.25;2.85;;;15.40;67.60;;;;;;4755242;30;20360;-79
2022/11/22 16:26:19;;;;;;;16.52;3.15;;;15.40;67.80;;;;;;4755360;30;20066;-77
2022/11/22 16:28:46;;;;;;;15.90;2.65;;;15.40;68.40;;;;;;4755332;30;20066;-77
2022/11/22 16:31:17;;;;;;;15.50;2.65;;;15.40;68.40;;;;;;4739692;30;20123;-78
2022/11/22 16:33:43;;;;;;;10.15;2.13;;;15.30;68.70;;;;;;4733273;30;20037;-78
2022/11/22 16:36:13;;;;;;;23.38;3.22;;;15.30;68.70;;;;;;4751311;30;20127;-78
2022/11/22 16:38:39;;;;;;;23.17;3.20;;;15.30;69.30;;;;;;4736884;30;20061;-77
2022/11/22 16:41:25;;;;;;;20.65;2.63;;;15.30;68.80;;;;;;4737814;30;20051;-78
2022/11/22 16:43:53;;;;;;;18.90;2.97;;;15.30;68.80;;;;;;4707735;30;20044;-78
2022/11/22 16:46:19;;;;;;;21.17;2.63;;;15.20;68.80;;;;;;4737148;30;20124;-78
2022/11/22 16:48:45;;;;;;;26.83;3.08;;;15.20;69.20;;;;;;4737438;30;20428;-76
2022/11/22 16:51:19;;;;;;;22.45;3.17;;;15.20;69.10;;;;;;4737398;30;20102;-78
2022/11/22 16:53:47;;;;;;;31.90;3.92;;;15.20;69.40;;;;;;4737063;30;20476;-77
2022/11/22 16:56:21;;;;;;;27.90;4.43;;;15.10;69.30;;;;;;4737802;30;20413;-81
2022/11/22 16:58:48;;;;;;;24.13;3.00;;;15.10;69.20;;;;;;4722477;30;20458;-79
2022/11/22 17:01:21;;;;;;;21.05;3.28;;;15.10;68.90;;;;;;4721285;30;20442;-78
2022/11/22 17:03:52;;;;;;;21.50;2.63;;;15.10;68.30;;;;;;4731227;30;20071;-78
2022/11/22 17:06:23;;;;;;;18.40;2.97;;;15.10;67.60;;;;;;4753131;30;20036;-78
2022/11/22 17:08:52;;;;;;;18.13;2.92;;;15.00;67.10;;;;;;4725775;30;20080;-80
2022/11/22 17:11:32;;;;;;;21.33;2.92;;;15.00;66.70;;;;;;4706859;30;20083;-79
2022/11/22 17:14:01;;;;;;;20.58;3.25;;;14.90;67.00;;;;;;4721435;30;20045;-79
2022/11/22 17:16:48;;;;;;;23.55;4.55;;;14.90;67.30;;;;;;4736257;30;20049;-81
2022/11/22 17:19:30;;;;;;;19.98;2.72;;;14.80;67.20;;;;;;4738604;30;20052;-78
2022/11/22 17:22:21;;;;;;;15.43;2.80;;;14.80;67.10;;;;;;4724958;30;20086;-80
2022/11/22 17:25:20;;;;;;;15.38;2.05;;;14.80;67.00;;;;;;4753495;30;20052;-82
2022/11/22 17:28:26;;;;;;;13.43;2.65;;;14.70;66.90;;;;;;4725068;30;20052;-79
2022/11/22 17:31:34;;;;;;;17.88;2.60;;;14.70;66.90;;;;;;4739827;30;20377;-81
2022/11/22 17:34:35;;;;;;;23.13;1.70;;;14.60;66.80;;;;;;4716493;30;20047;-80
2022/11/22 17:37:39;;;;;;;16.02;2.65;;;14.60;66.90;;;;;;4721468;30;20056;-80
2022/11/22 17:40:19;;;;;;;16.20;2.05;;;14.60;66.90;;;;;;4735252;30;20456;-80
2022/11/22 17:42:56;;;;;;;7.47;1.77;;;14.60;67.00;;;;;;4721391;30;20090;-78
2022/11/22 17:45:24;;;;;;;10.45;1.63;;;14.50;67.00;;;;;;4720940;30;20063;-80
2022/11/22 17:48:16;;;;;;;11.80;1.75;;;14.50;67.00;;;;;;4721124;30;20048;-78
2022/11/22 17:51:24;;;;;;;6.55;1.58;;;14.50;67.00;;;;;;4727767;30;20048;-78
2022/11/22 17:53:55;;;;;;;10.40;2.28;;;14.50;66.90;;;;;;4741173;30;20135;-80
2022/11/22 17:56:25;;;;;;;8.57;1.73;;;14.50;67.10;;;;;;4726711;30;20049;-80
2022/11/22 17:58:51;;;;;;;9.13;1.77;;;14.50;67.10;;;;;;4730841;30;20068;-81
2022/11/22 18:01:19;;;;;;;6.22;1.27;;;14.50;67.00;;;;;;4754690;30;20099;-80
2022/11/22 18:03:46;;;;;;;5.90;1.60;;;14.50;66.10;;;;;;4727504;30;20053;-78
2022/11/22 18:06:13;;;;;;;15.50;1.80;;;14.30;66.60;;;;;;4742066;30;20379;-78
2022/11/22 18:08:41;;;;;;;7.13;2.15;;;14.20;67.10;;;;;;4742483;30;20091;-76
2022/11/22 18:11:08;;;;;;;12.45;2.08;;;14.00;67.70;;;;;;4728760;30;20067;-79
2022/11/22 18:13:40;;;;;;;9.02;2.25;;;13.90;68.10;;;;;;4744576;30;20056;-78
2022/11/22 18:16:10;;;;;;;7.53;1.20;;;13.70;68.70;;;;;;4735776;30;20114;-77
2022/11/22 18:18:37;;;;;;;7.32;1.20;;;13.60;69.40;;;;;;4741895;30;20064;-80
2022/11/22 18:21:05;;;;;;;8.60;1.20;;;13.60;69.60;;;;;;4756222;30;20064;-80
2022/11/22 18:23:32;;;;;;;6.68;1.23;;;13.60;70.00;;;;;;4742416;30;20052;-79
2022/11/22 18:26:00;;;;;;;3.65;1.20;;;13.50;70.70;;;;;;4756014;30;20339;-77
2022/11/22 18:28:25;;;;;;;8.40;1.30;;;13.50;70.90;;;;;;4751331;30;20468;-78
2022/11/22 18:30:58;;;;;;;5.35;1.45;;;13.50;70.90;;;;;;4744148;30;20055;-81
2022/11/22 18:33:24;;;;;;;16.52;1.92;;;13.50;71.00;;;;;;4759722;30;20059;-78
2022/11/22 18:35:59;;;;;;;12.98;1.75;;;13.40;71.40;;;;;;4759821;30;20040;-81
2022/11/22 18:38:25;;;;;;;4.53;0.95;;;13.40;71.60;;;;;;4759964;30;20056;-81
2022/11/22 18:41:06;;;;;;;5.10;0.93;;;13.40;71.80;;;;;;4730365;30;20129;-80
2022/11/22 18:43:32;;;;;;;7.65;0.80;;;13.40;71.90;;;;;;4759679;30;20083;-79
2022/11/22 18:46:02;;;;;;;4.75;1.10;;;13.40;72.10;;;;;;4743982;30;20149;-82
2022/11/22 18:48:29;;;;;;;7.00;1.20;;;13.40;72.00;;;;;;4743277;30;20201;-78
2022/11/22 18:50:59;;;;;;;10.23;1.10;;;13.40;71.90;;;;;;4726445;30;20067;-78
2022/11/22 18:53:27;;;;;;;8.25;1.33;;;13.40;72.00;;;;;;4725979;30;20118;-79
2022/11/22 18:55:53;;;;;;;6.00;1.80;;;13.40;71.50;;;;;;4725815;30;20148;-79
2022/11/22 18:58:19;;;;;;;3.03;0.98;;;13.40;71.30;;;;;;4754799;30;20131;-79
2022/11/22 19:00:45;;;;;;;3.63;1.40;;;13.40;70.80;;;;;;4725607;30;20143;-78
2022/11/22 19:03:11;;;;;;;3.60;1.15;;;13.40;70.20;;;;;;4738689;30;20061;-78
2022/11/22 19:05:39;;;;;;;2.83;1.02;;;13.50;69.30;;;;;;4738780;30;20143;-79
2022/11/22 19:08:07;;;;;;;3.63;1.00;;;13.50;68.30;;;;;;4723675;30;20143;-78
2022/11/22 19:10:34;;;;;;;2.72;0.80;;;13.50;67.40;;;;;;4738464;30;20052;-79
2022/11/22 19:12:59;;;;;;;4.65;0.90;;;13.50;67.40;;;;;;4736967;30;20539;-80
2022/11/22 19:15:25;;;;;;;4.50;0.80;;;13.50;68.20;;;;;;4738546;30;20048;-78
2022/11/22 19:17:51;;;;;;;2.70;1.45;;;13.50;68.40;;;;;;4723740;30;20061;-80
2022/11/22 19:20:17;;;;;;;2.58;0.73;;;13.50;67.90;;;;;;4738114;30;20402;-80
2022/11/22 19:22:43;;;;;;;1.95;1.25;;;13.60;66.40;;;;;;4722977;30;20072;-77
2022/11/22 19:25:09;;;;;;;3.10;1.10;;;13.60;65.20;;;;;;4738712;30;20438;-78
2022/11/22 19:27:35;;;;;;;2.50;0.80;;;13.70;64.50;;;;;;4738391;30;20105;-77
2022/11/22 19:30:01;;;;;;;2.15;0.98;;;13.70;63.80;;;;;;4738652;30;20057;-79
2022/11/22 19:32:26;;;;;;;8.13;1.52;;;13.60;63.50;;;;;;4738074;30;20056;-78
2022/11/22 19:34:53;;;;;;;2.80;1.20;;;13.60;63.30;;;;;;4737689;30;20052;-77
2022/11/22 19:37:18;;;;;;;2.15;0.95;;;13.60;63.80;;;;;;4742942;30;20044;-79
2022/11/22 19:39:45;;;;;;;2.53;0.90;;;13.60;64.20;;;;;;4756021;30;20389;-80
2022/11/22 19:42:11;;;;;;;2.65;1.10;;;13.60;64.50;;;;;;4745003;30;20491;-78